Hauptseite
METAR-TAF:

METAR-TAF

Flughäfen :

Militärflugplatz Chièvres

Chièvres, Belgien

Breite: 50-34N, Länge: 003-50E, Höhe: 60 m

Beobachtung

Neuester Wetterbericht von vor 28 Minuten, um 01:55 UTC
Wind 11 kt aus Ost/Nordost
Temperatur 2°C
Luftfeuchtigkeit 80%
Luftdruck 1027 hPa
Sichtweite 10 km oder mehr

METAR: EBCV 180155Z AUTO 07011KT 9999 NCD 02/M01 Q1027 BLU

Zeit: 03:23 (02:23 UTC)

Prognose

Neuester Wetterbericht von vor 10 Stunden und 42 Minuten, um 15:41 UTC
Gültige Prognose vom 17 um 19 UTC bis 18 um 07 UTC
Wind 10 kt aus Ost/Nordost
Sichtweite 10 km oder mehr
Himmel klar

TAF: EBCV 171541Z 1719/1807 06010KT 9999 SKC BY EBWM

Wetterbeobachtungen und Prognosen von mehr als 4000 Flughäfen (METAR und TAF Bericht).

Die verfügbaren Stationen werden durch gelbe und rote Markierungen auf der Karte dargestellt.

Führen Sie die Maus auf sie, um den Namen der Station zu sehen.

Darauf klicken, um die Beobachtung von Wetterbeobachtungen und Prognosen zu sehen.

Um die Karte zu ändern : klicken Sie auf den grünen Tasten mit einem schwarzen Kreuz Zum Vergrößern, auf den grünen Button mit einem Gedankenstrich zu verkleinern, oder auf die grünen Pfeile für benachbarte Karten.


METAR-TAF: